createdAt,value
2022-11-04T00:02:07.823Z,99442.47
2022-11-04T00:04:34.554Z,99413.31
2022-11-04T00:07:01.275Z,99399.13
2022-11-04T00:09:30.464Z,99409.56
2022-11-04T00:12:16.275Z,99412.16
2022-11-04T00:14:43.275Z,99411.38
2022-11-04T00:17:22.367Z,99399.84
2022-11-04T00:20:12.053Z,99396.28
2022-11-04T00:22:59.227Z,99423.44
2022-11-04T00:25:45.309Z,99420.03
2022-11-04T00:28:30.386Z,99410.16
2022-11-04T00:30:58.756Z,99408.25
2022-11-04T00:33:25.821Z,99401.91
2022-11-04T00:35:54.858Z,99405.59
2022-11-04T00:38:22.266Z,99404.41
2022-11-04T00:40:50.013Z,99395.28
2022-11-04T00:43:19.276Z,99403.63
2022-11-04T00:45:46.022Z,99396.88
2022-11-04T00:48:12.920Z,99388.28
2022-11-04T00:50:39.906Z,99393.66
2022-11-04T00:53:06.917Z,99382.56
2022-11-04T00:55:33.846Z,99388.78
2022-11-04T00:58:00.518Z,99381.38
2022-11-04T01:00:27.509Z,99387.44
2022-11-04T01:02:54.288Z,99377.91
2022-11-04T01:05:21.080Z,99371.13
2022-11-04T01:07:47.786Z,99370.34
2022-11-04T01:10:14.575Z,99367.16
2022-11-04T01:12:41.212Z,99356.44
2022-11-04T01:15:08.198Z,99367.00
2022-11-04T01:17:35.062Z,99360.00
2022-11-04T01:20:01.709Z,99376.00
2022-11-04T01:22:29.890Z,99378.78
2022-11-04T01:24:57.135Z,99354.97
2022-11-04T01:27:24.014Z,99344.25
2022-11-04T01:29:51.133Z,99345.06
2022-11-04T01:32:18.033Z,99335.22
2022-11-04T01:34:46.000Z,99337.97
2022-11-04T01:37:12.655Z,99339.16
2022-11-04T01:39:39.396Z,99334.38
2022-11-04T01:42:06.117Z,99331.19
2022-11-04T01:44:49.615Z,99327.28
2022-11-04T01:47:24.269Z,99317.63
2022-11-04T01:50:08.793Z,99314.66
2022-11-04T01:52:40.972Z,99324.41
2022-11-04T01:55:13.371Z,99332.94
2022-11-04T01:57:44.160Z,99323.69
2022-11-04T02:00:12.351Z,99333.09
2022-11-04T02:02:57.058Z,99324.09
2022-11-04T02:05:25.075Z,99317.69
2022-11-04T02:07:55.524Z,99312.16
2022-11-04T02:10:28.595Z,99313.53
2022-11-04T02:12:57.151Z,99301.97
2022-11-04T02:15:55.895Z,99302.66
2022-11-04T02:18:37.446Z,99304.41
2022-11-04T02:21:34.781Z,99301.47
2022-11-04T02:24:20.129Z,99284.34
2022-11-04T02:27:35.488Z,99288.31
2022-11-04T02:30:18.832Z,99288.09
2022-11-04T02:33:15.587Z,99289.50
2022-11-04T02:35:42.183Z,99286.56
2022-11-04T02:38:36.820Z,99274.22
2022-11-04T02:41:17.612Z,99276.19
2022-11-04T02:44:05.882Z,99284.19
2022-11-04T02:46:35.089Z,99265.16
2022-11-04T02:49:17.097Z,99267.97
2022-11-04T02:52:00.614Z,99263.78
2022-11-04T02:54:31.103Z,99251.44
2022-11-04T02:57:00.700Z,99247.88
2022-11-04T02:59:40.222Z,99243.63
2022-11-04T03:02:12.674Z,99245.56
2022-11-04T03:04:43.116Z,99237.22
2022-11-04T03:07:15.102Z,99246.00
2022-11-04T03:09:48.115Z,99240.41
2022-11-04T03:12:18.202Z,99233.19
2022-11-04T03:14:55.756Z,99238.38
2022-11-04T03:17:36.512Z,99238.44
2022-11-04T03:20:09.418Z,99243.84
2022-11-04T03:22:37.306Z,99236.50
2022-11-04T03:25:06.383Z,99242.09
2022-11-04T03:27:33.093Z,99237.44
2022-11-04T03:30:06.727Z,99235.63
2022-11-04T03:32:58.835Z,99239.66
2022-11-04T03:35:26.682Z,99243.13
2022-11-04T03:37:53.791Z,99239.06
2022-11-04T03:40:22.080Z,99236.09
2022-11-04T03:42:57.305Z,99239.88
2022-11-04T03:45:24.630Z,99238.97
2022-11-04T03:47:52.050Z,99239.53
2022-11-04T03:50:28.662Z,99242.41
2022-11-04T03:52:55.812Z,99234.19
2022-11-04T03:55:31.009Z,99231.38
2022-11-04T03:58:07.047Z,99228.00
2022-11-04T04:00:47.163Z,99222.44
2022-11-04T04:03:28.307Z,99220.34
2022-11-04T04:06:16.796Z,99221.72
2022-11-04T04:09:21.241Z,99223.44
2022-11-04T04:12:29.162Z,99214.44
2022-11-04T04:15:04.936Z,99217.56
2022-11-04T04:17:43.457Z,99213.00
2022-11-04T04:20:16.784Z,99211.41
2022-11-04T04:23:03.387Z,99204.63
2022-11-04T04:25:50.738Z,99199.91
2022-11-04T04:28:20.049Z,99205.41
2022-11-04T04:30:47.759Z,99205.78
2022-11-04T04:33:17.405Z,99205.78
2022-11-04T04:35:56.551Z,99208.69
2022-11-04T04:38:44.245Z,99206.22
2022-11-04T04:41:37.033Z,99203.50
2022-11-04T04:44:23.328Z,99207.09
2022-11-04T04:46:52.213Z,99214.66
2022-11-04T04:49:18.812Z,99204.50
2022-11-04T04:51:47.951Z,99203.91
2022-11-04T04:54:15.172Z,99202.03
2022-11-04T04:56:41.968Z,99196.47
2022-11-04T04:59:08.717Z,99201.88
2022-11-04T05:01:35.534Z,99207.03
2022-11-04T05:04:02.355Z,99212.06
2022-11-04T05:06:29.070Z,99203.72
2022-11-04T05:08:56.853Z,99196.94
2022-11-04T05:11:24.645Z,99206.75
2022-11-04T05:13:52.948Z,99207.56
2022-11-04T05:16:19.749Z,99196.94
2022-11-04T05:18:46.370Z,99205.75
2022-11-04T05:21:16.162Z,99206.19
2022-11-04T05:23:42.804Z,99205.31
2022-11-04T05:26:09.577Z,99197.41
2022-11-04T05:28:38.637Z,99203.16
2022-11-04T05:31:06.841Z,99205.88
2022-11-04T05:33:33.850Z,99215.56
2022-11-04T05:36:14.116Z,99212.75
2022-11-04T05:38:41.633Z,99200.38
2022-11-04T05:41:10.238Z,99196.41
2022-11-04T05:43:37.528Z,99196.41
2022-11-04T05:46:04.359Z,99195.69
2022-11-04T05:48:32.384Z,99197.47
2022-11-04T05:51:00.752Z,99193.44
2022-11-04T05:55:53.918Z,99205.19
2022-11-04T05:58:20.813Z,99217.72
2022-11-04T06:00:47.470Z,99227.31
2022-11-04T06:03:16.334Z,99230.47
2022-11-04T06:05:45.553Z,99251.00
2022-11-04T06:08:13.625Z,99258.94
2022-11-04T06:10:40.319Z,99251.31
2022-11-04T06:13:06.958Z,99253.09
2022-11-04T06:15:33.656Z,99248.81
2022-11-04T06:18:00.376Z,99248.31
2022-11-04T06:20:27.012Z,99246.25
2022-11-04T06:22:53.652Z,99253.00
2022-11-04T06:25:20.941Z,99256.84
2022-11-04T06:27:48.664Z,99272.69
2022-11-04T06:30:15.369Z,99273.16
2022-11-04T06:32:42.172Z,99264.75
2022-11-04T06:35:09.183Z,99267.91
2022-11-04T06:37:36.153Z,99281.59
2022-11-04T06:40:02.897Z,99278.94
2022-11-04T06:42:29.608Z,99280.09
2022-11-04T06:44:56.244Z,99282.47
2022-11-04T06:47:25.059Z,99289.63
2022-11-04T06:49:52.023Z,99297.03
2022-11-04T06:52:18.771Z,99297.63
2022-11-04T06:54:46.445Z,99290.63
2022-11-04T06:57:13.106Z,99298.56
2022-11-04T06:59:40.197Z,99303.94
2022-11-04T07:02:07.351Z,99304.94
2022-11-04T07:04:34.088Z,99309.75
2022-11-04T07:07:00.793Z,99301.00
2022-11-04T07:09:27.440Z,99298.16
2022-11-04T07:11:54.176Z,99283.91
2022-11-04T07:14:22.178Z,99288.09
2022-11-04T07:16:52.354Z,99292.94
2022-11-04T07:19:19.261Z,99292.16
2022-11-04T07:21:45.973Z,99279.78
2022-11-04T07:24:12.821Z,99284.38
2022-11-04T07:26:40.133Z,99283.78
2022-11-04T07:29:06.913Z,99268.22
2022-11-04T07:31:33.674Z,99265.31
2022-11-04T07:34:00.530Z,99269.72
2022-11-04T07:36:27.170Z,99265.69
2022-11-04T07:38:54.263Z,99260.06
2022-11-04T07:41:21.758Z,99263.00
2022-11-04T07:43:52.798Z,99254.22
2022-11-04T07:46:20.590Z,99263.88
2022-11-04T07:48:47.438Z,99261.91
2022-11-04T07:51:17.363Z,99256.75
2022-11-04T07:53:44.241Z,99245.03
2022-11-04T07:56:12.836Z,99252.00
2022-11-04T07:58:40.437Z,99253.22
2022-11-04T08:01:16.227Z,99252.81
2022-11-04T08:03:43.187Z,99249.13
2022-11-04T08:06:12.885Z,99244.53
2022-11-04T08:08:39.830Z,99237.75
2022-11-04T08:11:16.819Z,99236.25
2022-11-04T08:13:44.223Z,99233.00
2022-11-04T08:16:16.419Z,99241.81
2022-11-04T08:18:43.650Z,99238.13
2022-11-04T08:21:11.867Z,99239.66
2022-11-04T08:23:39.016Z,99226.09
2022-11-04T08:26:10.349Z,99233.50
2022-11-04T08:28:37.289Z,99226.50
2022-11-04T08:31:09.549Z,99228.97
2022-11-04T08:33:36.858Z,99226.09
2022-11-04T08:36:09.401Z,99232.19
2022-11-04T08:38:38.222Z,99231.09
2022-11-04T08:41:06.732Z,99223.78
2022-11-04T08:43:34.456Z,99226.19
2022-11-04T08:46:02.263Z,99207.81
2022-11-04T08:48:33.841Z,99195.06
2022-11-04T08:51:01.086Z,99194.31
2022-11-04T08:53:28.324Z,99192.72
2022-11-04T08:55:57.868Z,99191.22
2022-11-04T08:58:25.398Z,99178.72
2022-11-04T09:00:52.696Z,99184.03
2022-11-04T09:03:20.194Z,99175.47
2022-11-04T09:05:49.657Z,99184.34
2022-11-04T09:08:18.007Z,99178.00
2022-11-04T09:10:46.953Z,99175.97
2022-11-04T09:13:15.668Z,99174.75
2022-11-04T09:15:42.706Z,99172.72
2022-11-04T09:18:09.428Z,99171.63
2022-11-04T09:20:39.399Z,99164.94
2022-11-04T09:23:07.135Z,99179.28
2022-11-04T09:25:35.017Z,99165.88
2022-11-04T09:28:01.819Z,99168.31
2022-11-04T09:30:28.712Z,99173.56
2022-11-04T09:32:55.469Z,99167.28
2022-11-04T09:35:22.788Z,99162.97
2022-11-04T09:37:50.725Z,99171.88
2022-11-04T09:40:23.491Z,99161.09
2022-11-04T09:43:06.017Z,99150.00
2022-11-04T09:45:34.096Z,99156.97
2022-11-04T09:48:07.660Z,99153.81
2022-11-04T09:50:51.173Z,99147.50
2022-11-04T09:53:30.578Z,99136.63
2022-11-04T09:56:10.645Z,99138.13
2022-11-04T09:58:39.228Z,99131.69
2022-11-04T10:01:07.054Z,99128.63
2022-11-04T10:03:51.998Z,99124.69
2022-11-04T10:06:32.389Z,99129.88
2022-11-04T10:09:39.721Z,99116.06
2022-11-04T10:15:34.864Z,99110.44
2022-11-04T10:18:19.875Z,99110.22
2022-11-04T10:20:46.539Z,99101.00
2022-11-04T10:23:34.357Z,99087.22
2022-11-04T10:26:15.011Z,99075.91
2022-11-04T10:28:46.374Z,99068.13
2022-11-04T10:31:18.612Z,99072.91
2022-11-04T10:34:09.117Z,99070.72
2022-11-04T10:36:37.971Z,99064.84
2022-11-04T10:39:17.704Z,99065.16
2022-11-04T10:41:46.063Z,99072.03
2022-11-04T10:44:24.126Z,99049.16
2022-11-04T10:47:09.646Z,99046.34
2022-11-04T10:50:26.559Z,99044.66
2022-11-04T10:52:43.171Z,99041.94
2022-11-04T10:55:15.441Z,99041.94
2022-11-04T10:57:45.047Z,99034.06
2022-11-04T11:00:38.260Z,99022.06
2022-11-04T11:03:25.198Z,99020.81
2022-11-04T11:05:55.298Z,99012.34
2022-11-04T11:08:33.719Z,99012.47
2022-11-04T11:11:00.539Z,99005.00
2022-11-04T11:13:34.842Z,98992.59
2022-11-04T11:16:17.416Z,98980.09
2022-11-04T11:18:44.121Z,98988.75
2022-11-04T11:21:21.230Z,98972.06
2022-11-04T11:23:51.032Z,98965.06
2022-11-04T11:26:29.350Z,98973.19
2022-11-04T11:29:02.164Z,98961.34
2022-11-04T11:31:38.501Z,98958.28
2022-11-04T11:34:15.081Z,98949.38
2022-11-04T11:36:44.797Z,98945.31
2022-11-04T11:39:17.005Z,98935.50
2022-11-04T11:41:59.197Z,98931.22
2022-11-04T11:44:32.856Z,98926.03
2022-11-04T11:47:03.072Z,98931.00
2022-11-04T11:49:34.472Z,98922.19
2022-11-04T11:52:38.482Z,98919.81
2022-11-04T11:55:41.035Z,98912.13
2022-11-04T12:01:42.601Z,98905.72
2022-11-04T12:10:51.691Z,98899.16
2022-11-04T12:13:26.515Z,98893.16
2022-11-04T12:16:35.377Z,98894.41
2022-11-04T12:19:17.172Z,98896.34
2022-11-04T12:22:10.992Z,98883.59
2022-11-04T12:24:56.335Z,98889.28
2022-11-04T12:27:52.404Z,98882.41
2022-11-04T12:30:32.313Z,98881.75
2022-11-04T12:33:30.127Z,98865.47
2022-11-04T12:36:20.882Z,98868.53
2022-11-04T12:39:04.175Z,98865.25
2022-11-04T12:42:20.155Z,98863.41
2022-11-04T12:45:09.941Z,98867.53
2022-11-04T12:47:40.831Z,98869.69
2022-11-04T12:50:25.260Z,98858.66
2022-11-04T12:53:17.806Z,98859.53
2022-11-04T12:55:52.881Z,98854.88
2022-11-04T12:59:09.860Z,98853.56
2022-11-04T13:02:11.968Z,98845.25
2022-11-04T13:04:56.106Z,98836.91
2022-11-04T13:07:36.006Z,98850.66
2022-11-04T13:10:12.512Z,98850.09
2022-11-04T13:12:43.654Z,98850.88
2022-11-04T13:15:26.032Z,98846.03
2022-11-04T13:18:00.193Z,98843.66
2022-11-04T13:20:45.626Z,98842.97
2022-11-04T13:23:41.843Z,98829.34
2022-11-04T13:26:14.650Z,98825.50
2022-11-04T13:28:43.023Z,98818.41
2022-11-04T13:31:27.339Z,98807.22
2022-11-04T13:34:33.248Z,98814.91
2022-11-04T13:37:23.364Z,98819.75
2022-11-04T13:39:56.267Z,98824.41
2022-11-04T13:42:25.776Z,98828.66
2022-11-04T13:44:57.169Z,98835.72
2022-11-04T13:47:31.895Z,98852.44
2022-11-04T13:49:58.750Z,98861.50
2022-11-04T13:52:30.595Z,98853.56
2022-11-04T13:55:02.789Z,98855.47
2022-11-04T13:58:05.056Z,98857.38
2022-11-04T14:00:33.757Z,98859.75
2022-11-04T14:03:21.104Z,98858.53
2022-11-04T14:06:08.655Z,98860.53
2022-11-04T14:08:35.804Z,98867.09
2022-11-04T14:11:06.771Z,98869.81
2022-11-04T14:13:34.981Z,98868.25
2022-11-04T14:16:04.534Z,98869.38
2022-11-04T14:18:37.200Z,98868.66
2022-11-04T14:21:06.362Z,98870.06
2022-11-04T14:23:34.011Z,98877.94
2022-11-04T14:26:06.511Z,98873.78
2022-11-04T14:28:34.463Z,98874.81
2022-11-04T14:31:17.404Z,98879.88
2022-11-04T14:33:57.411Z,98886.19
2022-11-04T14:36:24.481Z,98874.09
2022-11-04T14:39:10.762Z,98880.44
2022-11-04T14:41:40.662Z,98873.44
2022-11-04T14:44:32.524Z,98882.38
2022-11-04T14:47:22.447Z,98880.44
2022-11-04T14:49:59.771Z,98877.63
2022-11-04T14:52:47.460Z,98867.00
2022-11-04T14:55:29.943Z,98880.19
2022-11-04T14:58:00.690Z,98878.84
2022-11-04T15:00:32.200Z,98875.00
2022-11-04T15:03:05.141Z,98878.16
2022-11-04T15:05:36.532Z,98878.06
2022-11-04T15:08:23.409Z,98886.41
2022-11-04T15:10:50.984Z,98895.56
2022-11-04T15:13:21.195Z,98903.13
2022-11-04T15:15:50.702Z,98910.22
2022-11-04T15:18:28.473Z,98914.81
2022-11-04T15:21:00.782Z,98924.19
2022-11-04T15:23:47.539Z,98934.16
2022-11-04T15:26:32.255Z,98946.31
2022-11-04T15:29:08.217Z,98949.72
2022-11-04T15:31:36.063Z,98947.34
2022-11-04T15:34:14.198Z,98945.56
2022-11-04T15:36:43.695Z,98952.31
2022-11-04T15:39:30.278Z,98971.97
2022-11-04T15:42:20.513Z,98992.97
2022-11-04T15:44:53.625Z,98997.16
2022-11-04T15:47:20.335Z,98991.44
2022-11-04T15:49:50.721Z,98994.41
2022-11-04T15:52:22.548Z,98988.59
2022-11-04T15:54:53.277Z,98997.16
2022-11-04T15:57:24.155Z,99003.38
2022-11-04T16:00:07.141Z,99008.34
2022-11-04T16:02:47.453Z,99009.63
2022-11-04T16:05:17.220Z,99006.31
2022-11-04T16:07:48.804Z,99008.53
2022-11-04T16:10:31.675Z,99017.38
2022-11-04T16:13:02.233Z,99023.41
2022-11-04T16:15:48.240Z,99013.53
2022-11-04T16:18:30.335Z,99010.75
2022-11-04T16:20:58.090Z,98997.78
2022-11-04T16:23:28.238Z,98993.41
2022-11-04T16:26:05.905Z,99008.16
2022-11-04T16:28:37.056Z,99007.09
2022-11-04T16:31:07.976Z,99006.16
2022-11-04T16:33:34.737Z,99005.22
2022-11-04T16:36:01.808Z,98991.28
2022-11-04T16:38:28.483Z,98990.50
2022-11-04T16:40:55.205Z,99003.69
2022-11-04T16:43:22.434Z,98998.16
2022-11-04T16:45:54.368Z,98991.81
2022-11-04T16:48:22.012Z,98998.56
2022-11-04T16:50:49.239Z,98998.16
2022-11-04T16:53:17.025Z,98987.38
2022-11-04T16:55:47.303Z,98992.75
2022-11-04T16:58:18.012Z,99000.16
2022-11-04T17:00:44.751Z,99018.09
2022-11-04T17:03:22.909Z,99037.25
2022-11-04T17:05:51.746Z,99063.50
2022-11-04T17:08:18.534Z,99068.25
2022-11-04T17:10:45.387Z,99063.88
2022-11-04T17:13:13.026Z,99054.13
2022-11-04T17:15:40.646Z,99080.78
2022-11-04T17:18:09.535Z,99061.50
2022-11-04T17:20:36.265Z,99055.56
2022-11-04T17:23:03.122Z,99056.97
2022-11-04T17:25:30.482Z,99050.03
2022-11-04T17:27:58.169Z,99060.81
2022-11-04T17:30:25.828Z,99059.66
2022-11-04T17:32:52.623Z,99068.41
2022-11-04T17:35:19.334Z,99067.00
2022-11-04T17:37:46.201Z,99072.38
2022-11-04T17:40:16.145Z,99066.44
2022-11-04T17:43:04.423Z,99079.16
2022-11-04T17:45:35.535Z,99085.53
2022-11-04T17:48:06.755Z,99080.00
2022-11-04T17:50:34.548Z,99077.41
2022-11-04T17:53:01.226Z,99093.94
2022-11-04T17:55:28.525Z,99071.66
2022-11-04T17:57:57.935Z,99066.94
2022-11-04T18:00:29.669Z,99064.59
2022-11-04T18:02:56.858Z,99085.25
2022-11-04T18:05:23.551Z,99089.03
2022-11-04T18:07:50.237Z,99097.38
2022-11-04T18:10:17.058Z,99092.19
2022-11-04T18:12:43.953Z,99102.75
2022-11-04T18:15:17.159Z,99108.94
2022-11-04T18:17:46.756Z,99109.72
2022-11-04T18:20:18.074Z,99117.09
2022-11-04T18:22:45.382Z,99128.22
2022-11-04T18:25:12.833Z,99122.25
2022-11-04T18:27:42.240Z,99120.66
2022-11-04T18:30:09.465Z,99131.41
2022-11-04T18:32:36.196Z,99125.84
2022-11-04T18:35:03.008Z,99138.56
2022-11-04T18:37:29.984Z,99138.56
2022-11-04T18:39:56.848Z,99134.59
2022-11-04T18:42:23.638Z,99136.78
2022-11-04T18:44:50.398Z,99147.50
2022-11-04T18:47:17.863Z,99153.03
2022-11-04T18:49:44.705Z,99150.69
2022-11-04T18:52:11.551Z,99166.19
2022-11-04T18:55:02.608Z,99162.63
2022-11-04T18:57:30.958Z,99173.34
2022-11-04T18:59:57.650Z,99164.00
2022-11-04T19:02:25.459Z,99168.78
2022-11-04T19:04:52.503Z,99162.63
2022-11-04T19:07:19.730Z,99172.94
2022-11-04T19:09:47.713Z,99162.03
2022-11-04T19:12:33.490Z,99166.00
2022-11-04T19:15:00.170Z,99168.78
2022-11-04T19:17:27.465Z,99171.19
2022-11-04T19:19:54.425Z,99174.75
2022-11-04T19:22:21.104Z,99181.72
2022-11-04T19:24:47.993Z,99186.28
2022-11-04T19:27:15.004Z,99190.25
2022-11-04T19:29:41.670Z,99187.84
2022-11-04T19:32:13.842Z,99191.03
2022-11-04T19:34:41.295Z,99189.44
2022-11-04T19:37:07.947Z,99192.19
2022-11-04T19:39:37.209Z,99193.19
2022-11-04T19:42:23.675Z,99192.41
2022-11-04T19:44:50.469Z,99184.44
2022-11-04T19:47:17.147Z,99192.97
2022-11-04T19:49:43.803Z,99193.78
2022-11-04T19:52:12.556Z,99202.53
2022-11-04T19:54:40.134Z,99203.31
2022-11-04T19:57:10.498Z,99207.69
2022-11-04T19:59:39.080Z,99213.09
2022-11-04T20:02:10.589Z,99223.25
2022-11-04T20:04:38.150Z,99218.44
2022-11-04T20:07:06.327Z,99219.28
2022-11-04T20:09:33.394Z,99219.88
2022-11-04T20:12:18.564Z,99229.59
2022-11-04T20:14:45.517Z,99221.66
2022-11-04T20:17:12.135Z,99218.47
2022-11-04T20:19:38.823Z,99212.13
2022-11-04T20:22:05.859Z,99224.03
2022-11-04T20:24:32.654Z,99233.59
2022-11-04T20:26:59.342Z,99227.63
2022-11-04T20:29:25.974Z,99240.53
2022-11-04T20:31:52.640Z,99243.13
2022-11-04T20:34:22.902Z,99241.94
2022-11-04T20:36:49.632Z,99243.53
2022-11-04T20:39:20.359Z,99244.31
2022-11-04T20:41:47.650Z,99251.06
2022-11-04T20:44:15.731Z,99247.88
2022-11-04T20:46:43.377Z,99246.31
2022-11-04T20:49:10.763Z,99244.72
2022-11-04T20:51:50.109Z,99253.44
2022-11-04T20:54:20.904Z,99257.03
2022-11-04T20:56:47.732Z,99260.22
2022-11-04T20:59:14.927Z,99261.00
2022-11-04T21:01:44.531Z,99258.63
2022-11-04T21:04:18.757Z,99253.06
2022-11-04T21:06:50.816Z,99248.69
2022-11-04T21:09:19.628Z,99255.28
2022-11-04T21:11:46.612Z,99250.09
2022-11-04T21:14:16.192Z,99249.13
2022-11-04T21:16:43.760Z,99255.84
2022-11-04T21:19:12.095Z,99264.63
2022-11-04T21:21:40.292Z,99254.28
2022-11-04T21:24:07.233Z,99257.06
2022-11-04T21:26:36.101Z,99244.31
2022-11-04T21:29:06.097Z,99265.38
2022-11-04T21:31:35.015Z,99270.34
2022-11-04T21:34:02.092Z,99274.13
2022-11-04T21:36:30.681Z,99269.38
2022-11-04T21:38:59.113Z,99257.63
2022-11-04T21:41:29.746Z,99264.22
2022-11-04T21:44:02.019Z,99265.41
2022-11-04T21:46:30.539Z,99272.56
2022-11-04T21:48:57.765Z,99281.72
2022-11-04T21:51:28.937Z,99281.91
2022-11-04T21:53:56.573Z,99290.84
2022-11-04T21:56:26.687Z,99284.09
2022-11-04T21:58:54.157Z,99276.94
2022-11-04T22:01:24.928Z,99275.75
2022-11-04T22:03:59.419Z,99262.22
2022-11-04T22:06:32.364Z,99275.75
2022-11-04T22:09:00.756Z,99273.72
2022-11-04T22:11:32.519Z,99274.16
2022-11-04T22:14:04.742Z,99287.25
2022-11-04T22:16:34.153Z,99262.97
2022-11-04T22:19:03.330Z,99281.69
2022-11-04T22:21:32.528Z,99281.28
2022-11-04T22:24:00.272Z,99287.06
2022-11-04T22:26:32.558Z,99276.72
2022-11-04T22:29:00.000Z,99289.22
2022-11-04T22:31:32.480Z,99285.66
2022-11-04T22:34:00.818Z,99294.03
2022-11-04T22:36:29.182Z,99303.97
2022-11-04T22:38:56.329Z,99311.75
2022-11-04T22:41:28.037Z,99320.28
2022-11-04T22:43:55.678Z,99320.09
2022-11-04T22:46:28.749Z,99330.84
2022-11-04T22:48:55.750Z,99328.25
2022-11-04T22:51:22.481Z,99324.06
2022-11-04T22:53:57.666Z,99316.31
2022-11-04T22:56:25.960Z,99315.53
2022-11-04T22:58:54.271Z,99324.06
2022-11-04T23:01:21.652Z,99329.03
2022-11-04T23:03:50.617Z,99318.69
2022-11-04T23:06:17.471Z,99317.50
2022-11-04T23:08:45.151Z,99317.50
2022-11-04T23:11:40.006Z,99318.28
2022-11-04T23:14:25.897Z,99331.00
2022-11-04T23:17:11.282Z,99324.25
2022-11-04T23:19:39.177Z,99322.25
2022-11-04T23:22:26.359Z,99329.41
2022-11-04T23:25:06.124Z,99318.50
2022-11-04T23:27:53.250Z,99328.84
2022-11-04T23:30:21.125Z,99325.66
2022-11-04T23:32:58.893Z,99330.25
2022-11-04T23:35:58.105Z,99347.94
2022-11-04T23:38:26.008Z,99356.28
2022-11-04T23:41:15.352Z,99353.50
2022-11-04T23:43:42.149Z,99354.09
2022-11-04T23:46:27.402Z,99369.41
2022-11-04T23:49:14.326Z,99381.13
2022-11-04T23:51:59.688Z,99385.16
2022-11-04T23:54:46.299Z,99389.88
2022-11-04T23:57:33.677Z,99395.69
